createdAt,value
2023-02-24T00:02:04.757Z,82.78
2023-02-24T00:04:38.541Z,83.52
2023-02-24T00:07:06.619Z,83.55
2023-02-24T00:09:33.409Z,84.40
2023-02-24T00:12:06.382Z,84.56
2023-02-24T00:14:35.448Z,84.93
2023-02-24T00:17:02.694Z,85.69
2023-02-24T00:19:34.282Z,86.07
2023-02-24T00:22:02.877Z,86.76
2023-02-24T00:24:30.490Z,86.94
2023-02-24T00:27:00.977Z,86.62
2023-02-24T00:29:29.660Z,86.93
2023-02-24T00:32:02.757Z,87.23
2023-02-24T00:34:31.716Z,86.67
2023-02-24T00:36:59.462Z,87.27
2023-02-24T00:39:30.575Z,86.74
2023-02-24T00:42:06.803Z,86.46
2023-02-24T00:44:45.887Z,86.90
2023-02-24T00:47:16.517Z,86.96
2023-02-24T00:49:43.806Z,86.83
2023-02-24T00:52:19.106Z,86.70
2023-02-24T00:54:49.476Z,86.40
2023-02-24T00:57:21.645Z,87.05
2023-02-24T00:59:51.646Z,87.16
2023-02-24T01:02:18.984Z,86.71
2023-02-24T01:04:46.018Z,87.35
2023-02-24T01:07:13.773Z,87.43
2023-02-24T01:09:41.915Z,87.73
2023-02-24T01:12:29.284Z,88.16
2023-02-24T01:14:55.991Z,88.62
2023-02-24T01:17:22.959Z,89.62
2023-02-24T01:19:50.349Z,89.45
2023-02-24T01:22:19.761Z,89.50
2023-02-24T01:24:47.505Z,89.99
2023-02-24T01:27:17.648Z,89.93
2023-02-24T01:29:45.150Z,90.85
2023-02-24T01:32:20.547Z,90.86
2023-02-24T01:34:50.973Z,91.03
2023-02-24T01:37:19.309Z,91.54
2023-02-24T01:39:46.494Z,91.34
2023-02-24T01:42:19.942Z,91.91
2023-02-24T01:44:46.819Z,93.27
2023-02-24T01:47:20.699Z,93.25
2023-02-24T01:49:52.615Z,93.43
2023-02-24T01:52:26.987Z,94.03
2023-02-24T01:55:09.264Z,94.41
2023-02-24T01:57:38.911Z,94.22
2023-02-24T02:00:11.998Z,94.61
2023-02-24T02:02:45.173Z,94.65
2023-02-24T02:05:12.186Z,94.73
2023-02-24T02:07:40.917Z,95.15
2023-02-24T02:10:09.467Z,94.99
2023-02-24T02:12:44.209Z,94.72
2023-02-24T02:15:14.643Z,94.96
2023-02-24T02:17:52.284Z,95.38
2023-02-24T02:20:47.941Z,95.31
2023-02-24T02:23:38.761Z,95.13
2023-02-24T02:26:18.835Z,95.22
2023-02-24T02:29:07.513Z,94.78
2023-02-24T02:32:12.363Z,94.74
2023-02-24T02:34:54.271Z,95.39
2023-02-24T02:37:33.121Z,95.12
2023-02-24T02:40:16.088Z,94.88
2023-02-24T02:43:26.058Z,95.38
2023-02-24T02:46:03.785Z,95.23
2023-02-24T02:48:41.213Z,95.12
2023-02-24T02:51:11.412Z,95.62
2023-02-24T02:53:45.676Z,95.67
2023-02-24T02:56:14.952Z,95.84
2023-02-24T02:58:48.066Z,96.10
2023-02-24T03:01:21.018Z,96.18
2023-02-24T03:03:54.519Z,95.99
2023-02-24T03:06:33.899Z,96.86
2023-02-24T03:09:18.184Z,96.85
2023-02-24T03:11:49.121Z,96.78
2023-02-24T03:14:20.243Z,97.23
2023-02-24T03:16:49.941Z,97.10
2023-02-24T03:19:20.955Z,97.60
2023-02-24T03:21:58.897Z,97.92
2023-02-24T03:24:28.035Z,98.20
2023-02-24T03:27:13.468Z,98.58
2023-02-24T03:29:48.567Z,98.56
2023-02-24T03:32:22.108Z,98.56
2023-02-24T03:35:11.112Z,98.90
2023-02-24T03:37:38.484Z,98.87
2023-02-24T03:40:14.616Z,99.66
2023-02-24T03:42:48.396Z,99.80
2023-02-24T03:45:16.378Z,100.00
2023-02-24T03:47:45.625Z,100.00
2023-02-24T03:50:19.319Z,100.00
2023-02-24T03:53:16.498Z,100.00
2023-02-24T03:56:04.668Z,100.00
2023-02-24T03:58:52.503Z,100.00
2023-02-24T04:01:32.778Z,100.00
2023-02-24T04:04:13.045Z,100.00
2023-02-24T04:06:58.144Z,100.00
2023-02-24T04:10:02.817Z,100.00
2023-02-24T04:12:38.843Z,100.00
2023-02-24T04:15:14.871Z,100.00
2023-02-24T04:17:52.101Z,100.00
2023-02-24T04:20:23.142Z,100.00
2023-02-24T04:22:59.700Z,100.00
2023-02-24T04:25:27.821Z,100.00
2023-02-24T04:27:59.638Z,100.00
2023-02-24T04:30:33.506Z,100.00
2023-02-24T04:33:01.987Z,100.00
2023-02-24T04:35:28.680Z,100.00
2023-02-24T04:37:56.512Z,100.00
2023-02-24T04:40:24.527Z,100.00
2023-02-24T04:42:53.103Z,100.00
2023-02-24T04:45:22.145Z,100.00
2023-02-24T04:47:51.228Z,100.00
2023-02-24T04:50:25.322Z,100.00
2023-02-24T04:52:54.141Z,100.00
2023-02-24T04:55:24.434Z,100.00
2023-02-24T04:57:54.273Z,100.00
2023-02-24T05:00:22.731Z,100.00
2023-02-24T05:02:50.721Z,100.00
2023-02-24T05:05:25.601Z,100.00
2023-02-24T05:07:56.504Z,100.00
2023-02-24T05:10:28.071Z,100.00
2023-02-24T05:12:58.209Z,100.00
2023-02-24T05:15:31.422Z,100.00
2023-02-24T05:18:07.301Z,100.00
2023-02-24T05:21:03.355Z,100.00
2023-02-24T05:23:40.827Z,100.00
2023-02-24T05:26:09.185Z,100.00
2023-02-24T05:28:37.722Z,100.00
2023-02-24T05:31:06.297Z,100.00
2023-02-24T05:33:32.972Z,100.00
2023-02-24T05:36:05.694Z,100.00
2023-02-24T05:38:32.650Z,100.00
2023-02-24T05:41:08.760Z,100.00
2023-02-24T05:43:36.080Z,100.00
2023-02-24T05:46:07.180Z,100.00
2023-02-24T05:48:36.220Z,100.00
2023-02-24T05:51:08.267Z,100.00
2023-02-24T05:53:35.352Z,100.00
2023-02-24T05:56:05.524Z,100.00
2023-02-24T05:58:32.468Z,100.00
2023-02-24T06:01:05.923Z,100.00
2023-02-24T06:03:35.705Z,100.00
2023-02-24T06:06:09.106Z,100.00
2023-02-24T06:08:56.447Z,100.00
2023-02-24T06:11:23.637Z,100.00
2023-02-24T06:13:50.683Z,100.00
2023-02-24T06:16:18.944Z,100.00
2023-02-24T06:18:49.580Z,100.00
2023-02-24T06:21:16.433Z,100.00
2023-02-24T06:23:43.452Z,100.00
2023-02-24T06:26:13.130Z,100.00
2023-02-24T06:28:43.211Z,100.00
2023-02-24T06:31:11.038Z,100.00
2023-02-24T06:33:38.701Z,100.00
2023-02-24T06:36:06.495Z,100.00
2023-02-24T06:38:35.672Z,100.00
2023-02-24T06:41:04.245Z,100.00
2023-02-24T06:43:31.463Z,100.00
2023-02-24T06:45:58.300Z,100.00
2023-02-24T06:48:25.579Z,100.00
2023-02-24T06:50:52.222Z,100.00
2023-02-24T06:53:18.873Z,100.00
2023-02-24T06:55:46.710Z,100.00
2023-02-24T06:58:17.599Z,96.07
2023-02-24T07:00:56.807Z,92.22
2023-02-24T07:03:39.101Z,88.57
2023-02-24T07:06:36.085Z,86.43
2023-02-24T07:09:08.606Z,84.07
2023-02-24T07:11:36.923Z,82.39
2023-02-24T07:14:05.809Z,80.62
2023-02-24T07:16:34.757Z,78.19
2023-02-24T07:19:04.911Z,77.42
2023-02-24T07:21:39.645Z,76.66
2023-02-24T07:24:14.353Z,75.21
2023-02-24T07:26:42.261Z,74.31
2023-02-24T07:29:11.548Z,72.93
2023-02-24T07:31:39.827Z,72.20
2023-02-24T07:34:06.578Z,71.16
2023-02-24T07:36:38.910Z,70.48
2023-02-24T07:39:08.123Z,69.93
2023-02-24T07:41:37.093Z,68.90
2023-02-24T07:44:05.901Z,68.66
2023-02-24T07:46:33.459Z,68.17
2023-02-24T07:49:00.216Z,67.79
2023-02-24T07:51:29.415Z,65.91
2023-02-24T07:53:58.992Z,66.85
2023-02-24T07:56:28.233Z,68.06
2023-02-24T07:58:59.606Z,68.47
2023-02-24T08:01:30.129Z,67.97
2023-02-24T08:04:01.459Z,67.31
2023-02-24T08:06:38.929Z,68.53
2023-02-24T08:09:16.861Z,66.75
2023-02-24T08:11:46.607Z,67.42
2023-02-24T08:14:14.381Z,66.32
2023-02-24T08:16:43.208Z,65.46
2023-02-24T08:19:14.827Z,64.06
2023-02-24T08:21:47.331Z,63.32
2023-02-24T08:24:17.658Z,64.68
2023-02-24T08:27:03.757Z,65.82
2023-02-24T08:29:57.851Z,65.94
2023-02-24T08:32:37.112Z,66.54
2023-02-24T08:35:14.696Z,68.84
2023-02-24T08:37:54.325Z,68.35
2023-02-24T08:40:31.462Z,67.65
2023-02-24T08:43:00.024Z,67.57
2023-02-24T08:45:33.380Z,67.30
2023-02-24T08:48:18.238Z,66.75
2023-02-24T08:50:45.769Z,67.76
2023-02-24T08:53:19.269Z,67.00
2023-02-24T08:55:52.749Z,67.63
2023-02-24T08:58:26.985Z,67.73
2023-02-24T09:00:59.609Z,67.75
2023-02-24T09:03:29.248Z,67.92
2023-02-24T09:06:05.123Z,66.72
2023-02-24T09:08:41.391Z,66.31
2023-02-24T09:11:11.152Z,66.89
2023-02-24T09:13:51.469Z,66.62
2023-02-24T09:16:20.404Z,65.53
2023-02-24T09:19:07.312Z,65.49
2023-02-24T09:21:49.734Z,64.56
2023-02-24T09:24:27.090Z,64.09
2023-02-24T09:26:58.641Z,65.20
2023-02-24T09:29:35.119Z,66.11
2023-02-24T09:32:04.799Z,66.27
2023-02-24T09:34:43.994Z,65.84
2023-02-24T09:37:25.123Z,65.78
2023-02-24T09:39:55.794Z,66.41
2023-02-24T09:42:23.397Z,66.20
2023-02-24T09:44:55.560Z,67.02
2023-02-24T09:47:57.456Z,67.02
2023-02-24T09:51:03.101Z,65.96
2023-02-24T09:53:52.669Z,64.71
2023-02-24T09:56:28.302Z,64.87
2023-02-24T09:59:10.339Z,65.41
2023-02-24T10:02:18.717Z,65.66
2023-02-24T10:05:11.046Z,64.73
2023-02-24T10:07:40.910Z,66.09
2023-02-24T10:11:00.840Z,63.85
2023-02-24T10:13:32.637Z,63.89
2023-02-24T10:16:07.006Z,63.46
2023-02-24T10:19:14.971Z,61.46
2023-02-24T10:22:03.122Z,60.42
2023-02-24T10:24:47.451Z,59.18
2023-02-24T10:27:23.855Z,57.48
2023-02-24T10:30:04.948Z,57.33
2023-02-24T10:32:47.728Z,58.32
2023-02-24T10:35:17.162Z,58.88
2023-02-24T10:37:44.301Z,58.29
2023-02-24T10:40:17.412Z,56.03
2023-02-24T10:42:48.798Z,55.78
2023-02-24T10:45:23.741Z,57.11
2023-02-24T10:47:59.077Z,56.94
2023-02-24T10:50:33.881Z,57.69
2023-02-24T10:53:10.384Z,58.50
2023-02-24T10:55:47.348Z,57.30
2023-02-24T10:58:28.439Z,56.88
2023-02-24T11:01:13.354Z,54.43
2023-02-24T11:04:00.877Z,52.20
2023-02-24T11:06:52.799Z,51.14
2023-02-24T11:09:27.875Z,52.41
2023-02-24T11:12:23.477Z,52.91
2023-02-24T11:15:15.592Z,53.71
2023-02-24T11:17:51.171Z,51.45
2023-02-24T11:20:39.231Z,55.05
2023-02-24T11:23:19.256Z,55.99
2023-02-24T11:25:53.587Z,58.58
2023-02-24T11:28:42.800Z,58.32
2023-02-24T11:31:28.306Z,57.35
2023-02-24T11:34:27.535Z,57.14
2023-02-24T11:37:17.368Z,58.04
2023-02-24T11:40:02.925Z,58.85
2023-02-24T11:42:46.206Z,58.98
2023-02-24T11:45:40.953Z,61.22
2023-02-24T11:48:27.530Z,58.95
2023-02-24T11:51:00.600Z,58.33
2023-02-24T11:53:36.253Z,56.69
2023-02-24T11:56:14.182Z,56.63
2023-02-24T11:58:46.526Z,56.27
2023-02-24T12:01:35.638Z,56.55
2023-02-24T12:04:17.699Z,55.72
2023-02-24T12:07:07.645Z,55.87
2023-02-24T12:09:44.036Z,57.56
2023-02-24T12:12:19.158Z,57.62
2023-02-24T12:14:51.779Z,59.09
2023-02-24T12:17:21.375Z,58.35
2023-02-24T12:19:57.813Z,59.07
2023-02-24T12:22:30.927Z,58.65
2023-02-24T12:24:57.799Z,57.54
2023-02-24T12:27:46.448Z,56.12
2023-02-24T12:30:38.211Z,57.72
2023-02-24T12:33:19.136Z,58.70
2023-02-24T12:36:04.277Z,58.20
2023-02-24T12:38:51.177Z,56.90
2023-02-24T12:41:32.852Z,56.67
2023-02-24T12:44:19.090Z,55.40
2023-02-24T12:46:51.618Z,56.69
2023-02-24T12:49:58.856Z,55.79
2023-02-24T12:52:52.677Z,54.55
2023-02-24T12:55:34.498Z,54.18
2023-02-24T12:58:17.523Z,57.15
2023-02-24T13:01:12.328Z,54.51
2023-02-24T13:03:51.528Z,55.45
2023-02-24T13:06:31.260Z,55.96
2023-02-24T13:09:27.102Z,58.25
2023-02-24T13:12:05.759Z,57.11
2023-02-24T13:14:38.368Z,58.18
2023-02-24T13:17:10.697Z,58.75
2023-02-24T13:19:40.650Z,59.13
2023-02-24T13:22:11.457Z,59.34
2023-02-24T13:24:42.490Z,56.88
2023-02-24T13:27:30.875Z,57.37
2023-02-24T13:30:01.145Z,57.96
2023-02-24T13:32:34.529Z,56.96
2023-02-24T13:35:03.627Z,54.81
2023-02-24T13:37:38.775Z,56.31
2023-02-24T13:40:23.434Z,55.40
2023-02-24T13:42:59.076Z,53.77
2023-02-24T13:45:37.031Z,54.73
2023-02-24T13:48:25.596Z,54.28
2023-02-24T13:51:24.732Z,53.15
2023-02-24T13:53:51.357Z,52.49
2023-02-24T13:56:30.254Z,52.72
2023-02-24T13:59:18.492Z,53.39
2023-02-24T14:01:51.664Z,54.02
2023-02-24T14:04:22.667Z,54.18
2023-02-24T14:06:53.818Z,54.01
2023-02-24T14:09:28.276Z,54.73
2023-02-24T14:12:00.983Z,55.00
2023-02-24T14:14:28.458Z,54.90
2023-02-24T14:16:55.132Z,54.42
2023-02-24T14:19:25.311Z,54.05
2023-02-24T14:21:59.985Z,54.08
2023-02-24T14:24:28.109Z,54.13
2023-02-24T14:26:57.529Z,54.55
2023-02-24T14:29:32.005Z,54.64
2023-02-24T14:31:59.688Z,55.05
2023-02-24T14:34:29.828Z,55.45
2023-02-24T14:36:59.091Z,55.54
2023-02-24T14:39:29.444Z,55.52
2023-02-24T14:42:07.959Z,56.32
2023-02-24T14:44:45.100Z,56.33
2023-02-24T14:47:17.082Z,56.64
2023-02-24T14:50:02.684Z,57.22
2023-02-24T14:52:53.973Z,57.51
2023-02-24T14:55:35.275Z,57.56
2023-02-24T14:58:06.066Z,57.94
2023-02-24T15:00:37.957Z,57.95
2023-02-24T15:03:14.704Z,57.70
2023-02-24T15:05:48.673Z,57.91
2023-02-24T15:08:25.944Z,57.83
2023-02-24T15:10:53.344Z,58.36
2023-02-24T15:13:37.784Z,58.72
2023-02-24T15:16:12.986Z,58.61
2023-02-24T15:18:41.123Z,58.83
2023-02-24T15:21:17.654Z,59.22
2023-02-24T15:23:45.830Z,59.56
2023-02-24T15:26:33.815Z,60.04
2023-02-24T15:29:03.159Z,60.07
2023-02-24T15:31:30.454Z,60.49
2023-02-24T15:34:00.893Z,60.38
2023-02-24T15:36:33.287Z,60.48
2023-02-24T15:39:07.217Z,60.78
2023-02-24T15:41:42.250Z,61.04
2023-02-24T15:44:30.068Z,61.42
2023-02-24T15:46:59.033Z,61.32
2023-02-24T15:49:25.779Z,61.34
2023-02-24T15:51:54.715Z,61.71
2023-02-24T15:54:30.740Z,62.09
2023-02-24T15:57:01.948Z,62.10
2023-02-24T15:59:29.665Z,62.42
2023-02-24T16:01:56.345Z,62.42
2023-02-24T16:04:24.028Z,62.55
2023-02-24T16:06:54.778Z,62.63
2023-02-24T16:09:29.122Z,62.70
2023-02-24T16:11:56.711Z,62.53
2023-02-24T16:14:23.330Z,63.03
2023-02-24T16:16:50.149Z,63.14
2023-02-24T16:19:17.225Z,63.25
2023-02-24T16:21:44.179Z,63.33
2023-02-24T16:24:10.979Z,63.65
2023-02-24T16:26:39.907Z,64.14
2023-02-24T16:29:11.727Z,63.98
2023-02-24T16:31:39.366Z,64.04
2023-02-24T16:34:07.284Z,64.54
2023-02-24T16:36:34.476Z,64.54
2023-02-24T16:39:01.268Z,64.82
2023-02-24T16:41:27.952Z,64.89
2023-02-24T16:43:54.617Z,65.21
2023-02-24T16:46:23.194Z,65.36
2023-02-24T16:48:53.483Z,65.57
2023-02-24T16:51:20.680Z,65.71
2023-02-24T16:53:47.356Z,66.04
2023-02-24T16:56:15.194Z,66.24
2023-02-24T16:58:42.259Z,66.06
2023-02-24T17:01:15.925Z,65.76
2023-02-24T17:03:45.447Z,65.38
2023-02-24T17:06:12.127Z,65.33
2023-02-24T17:08:41.529Z,66.41
2023-02-24T17:11:13.323Z,66.00
2023-02-24T17:13:40.240Z,65.76
2023-02-24T17:16:07.267Z,65.94
2023-02-24T17:18:33.972Z,65.48
2023-02-24T17:21:00.565Z,64.93
2023-02-24T17:23:27.205Z,64.42
2023-02-24T17:25:56.795Z,65.18
2023-02-24T17:28:23.501Z,65.14
2023-02-24T17:30:50.298Z,65.64
2023-02-24T17:33:17.047Z,66.31
2023-02-24T17:35:44.314Z,66.75
2023-02-24T17:38:16.590Z,67.02
2023-02-24T17:40:43.997Z,68.42
2023-02-24T17:43:11.150Z,68.24
2023-02-24T17:45:43.052Z,68.69
2023-02-24T17:48:10.057Z,69.79
2023-02-24T17:50:36.848Z,70.51
2023-02-24T17:53:03.703Z,70.46
2023-02-24T17:55:30.356Z,70.37
2023-02-24T17:57:58.998Z,70.45
2023-02-24T18:00:25.630Z,70.69
2023-02-24T18:02:55.947Z,71.62
2023-02-24T18:05:22.767Z,72.82
2023-02-24T18:07:49.467Z,74.48
2023-02-24T18:10:17.206Z,77.06
2023-02-24T18:12:43.904Z,77.77
2023-02-24T18:15:11.163Z,77.95
2023-02-24T18:17:38.465Z,77.61
2023-02-24T18:20:06.666Z,76.21
2023-02-24T18:22:33.375Z,73.67
2023-02-24T18:25:01.133Z,72.80
2023-02-24T18:27:28.163Z,72.32
2023-02-24T18:29:55.002Z,72.79
2023-02-24T18:32:21.916Z,73.60
2023-02-24T18:34:48.945Z,74.02
2023-02-24T18:37:15.610Z,74.39
2023-02-24T18:39:42.201Z,74.53
2023-02-24T18:42:09.643Z,73.70
2023-02-24T18:44:36.311Z,73.70
2023-02-24T18:47:09.202Z,72.75
2023-02-24T18:49:37.048Z,71.68
2023-02-24T18:52:05.472Z,70.15
2023-02-24T18:54:33.775Z,70.18
2023-02-24T18:57:01.120Z,70.21
2023-02-24T18:59:27.824Z,69.96
2023-02-24T19:01:56.787Z,70.31
2023-02-24T19:04:23.890Z,70.68
2023-02-24T19:06:50.825Z,70.82
2023-02-24T19:09:21.580Z,70.84
2023-02-24T19:11:49.677Z,70.93
2023-02-24T19:14:16.510Z,70.92
2023-02-24T19:16:43.324Z,73.04
2023-02-24T19:19:13.637Z,76.48
2023-02-24T19:21:40.385Z,78.47
2023-02-24T19:24:08.376Z,78.56
2023-02-24T19:26:35.204Z,77.45
2023-02-24T19:29:02.355Z,77.70
2023-02-24T19:31:30.765Z,76.25
2023-02-24T19:34:03.039Z,78.17
2023-02-24T19:36:31.806Z,77.55
2023-02-24T19:38:58.651Z,78.40
2023-02-24T19:41:25.574Z,81.08
2023-02-24T19:43:52.494Z,81.21
2023-02-24T19:46:20.014Z,83.16
2023-02-24T19:48:47.329Z,83.71
2023-02-24T19:51:19.353Z,86.06
2023-02-24T19:53:46.280Z,88.17
2023-02-24T19:56:13.543Z,86.90
2023-02-24T19:58:40.218Z,87.83
2023-02-24T20:01:11.543Z,89.14
2023-02-24T20:03:39.475Z,88.97
2023-02-24T20:06:08.055Z,91.13
2023-02-24T20:08:35.702Z,92.58
2023-02-24T20:11:04.680Z,94.30
2023-02-24T20:13:31.925Z,96.31
2023-02-24T20:16:12.840Z,97.18
2023-02-24T20:18:41.150Z,96.71
2023-02-24T20:21:10.128Z,97.73
2023-02-24T20:23:37.838Z,99.65
2023-02-24T20:26:05.068Z,100.00
2023-02-24T20:28:31.795Z,100.00
2023-02-24T20:31:05.352Z,100.00
2023-02-24T20:33:32.243Z,100.00
2023-02-24T20:35:58.958Z,100.00
2023-02-24T20:38:25.658Z,100.00
2023-02-24T20:41:00.440Z,100.00
2023-02-24T20:43:28.067Z,100.00
2023-02-24T20:45:54.972Z,100.00
2023-02-24T20:48:22.030Z,100.00
2023-02-24T20:50:48.863Z,100.00
2023-02-24T20:53:15.976Z,100.00
2023-02-24T20:55:42.608Z,100.00
2023-02-24T20:58:09.307Z,100.00
2023-02-24T21:00:38.519Z,100.00
2023-02-24T21:03:07.835Z,100.00
2023-02-24T21:05:34.637Z,100.00
2023-02-24T21:08:01.317Z,100.00
2023-02-24T21:10:27.921Z,100.00
2023-02-24T21:12:54.560Z,100.00
2023-02-24T21:15:21.792Z,100.00
2023-02-24T21:17:48.468Z,100.00
2023-02-24T21:20:15.154Z,100.00
2023-02-24T21:22:42.211Z,100.00
2023-02-24T21:25:10.842Z,100.00
2023-02-24T21:27:38.519Z,100.00
2023-02-24T21:30:07.057Z,100.00
2023-02-24T21:32:33.936Z,100.00
2023-02-24T21:35:00.685Z,100.00
2023-02-24T21:37:27.278Z,100.00
2023-02-24T21:39:54.028Z,100.00
2023-02-24T21:42:22.211Z,100.00
2023-02-24T21:44:51.126Z,100.00
2023-02-24T21:47:18.690Z,100.00
2023-02-24T21:49:46.219Z,100.00
2023-02-24T21:52:13.211Z,100.00
2023-02-24T21:54:40.057Z,100.00
2023-02-24T21:57:06.682Z,100.00
2023-02-24T21:59:33.369Z,100.00
2023-02-24T22:02:00.283Z,100.00
2023-02-24T22:04:26.982Z,100.00
2023-02-24T22:06:54.044Z,100.00
2023-02-24T22:09:20.942Z,100.00
2023-02-24T22:11:48.864Z,100.00
2023-02-24T22:14:15.907Z,100.00
2023-02-24T22:16:42.968Z,100.00
2023-02-24T22:19:10.831Z,100.00
2023-02-24T22:21:39.676Z,100.00
2023-02-24T22:24:06.871Z,100.00
2023-02-24T22:26:33.894Z,100.00
2023-02-24T22:29:01.394Z,100.00
2023-02-24T22:31:30.881Z,100.00
2023-02-24T22:33:58.742Z,100.00
2023-02-24T22:36:28.128Z,100.00
2023-02-24T22:38:56.793Z,100.00
2023-02-24T22:41:26.195Z,100.00
2023-02-24T22:43:54.107Z,100.00
2023-02-24T22:46:24.802Z,100.00
2023-02-24T22:48:51.788Z,100.00
2023-02-24T22:51:19.030Z,100.00
2023-02-24T22:53:48.934Z,100.00
2023-02-24T22:56:18.746Z,100.00
2023-02-24T22:58:45.916Z,100.00
2023-02-24T23:01:13.829Z,100.00
2023-02-24T23:03:41.004Z,100.00
2023-02-24T23:06:10.593Z,100.00
2023-02-24T23:08:38.463Z,100.00
2023-02-24T23:11:14.140Z,100.00
2023-02-24T23:13:42.466Z,100.00
2023-02-24T23:16:14.127Z,100.00
2023-02-24T23:18:41.801Z,100.00
2023-02-24T23:21:10.127Z,97.19
2023-02-24T23:23:37.415Z,97.66
2023-02-24T23:26:05.531Z,97.37
2023-02-24T23:28:37.935Z,96.83
2023-02-24T23:31:04.749Z,95.87
2023-02-24T23:33:31.386Z,96.60
2023-02-24T23:36:04.992Z,96.71
2023-02-24T23:38:32.969Z,96.36
2023-02-24T23:41:00.399Z,95.49
2023-02-24T23:43:27.303Z,95.12
2023-02-24T23:45:54.051Z,94.57
2023-02-24T23:48:20.778Z,94.77
2023-02-24T23:50:47.870Z,94.83
2023-02-24T23:53:14.602Z,93.04
2023-02-24T23:55:41.384Z,90.82
2023-02-24T23:58:08.075Z,89.80
